createdAt,value
2022-07-28T00:02:18.932Z,99.90
2022-07-28T00:04:50.999Z,99.90
2022-07-28T00:07:20.878Z,99.90
2022-07-28T00:09:50.264Z,99.90
2022-07-28T00:12:19.634Z,99.90
2022-07-28T00:14:48.821Z,99.90
2022-07-28T00:17:18.299Z,99.90
2022-07-28T00:19:48.750Z,99.90
2022-07-28T00:22:18.208Z,99.90
2022-07-28T00:24:49.183Z,99.90
2022-07-28T00:27:19.624Z,99.90
2022-07-28T00:29:50.932Z,99.90
2022-07-28T00:32:23.817Z,99.90
2022-07-28T00:34:55.956Z,99.90
2022-07-28T00:37:25.568Z,99.90
2022-07-28T00:39:55.298Z,99.90
2022-07-28T00:42:24.649Z,99.90
2022-07-28T00:44:53.840Z,99.90
2022-07-28T00:47:23.579Z,99.90
2022-07-28T00:49:55.660Z,99.90
2022-07-28T00:52:25.743Z,99.90
2022-07-28T00:54:55.456Z,99.90
2022-07-28T00:57:24.395Z,99.90
2022-07-28T00:59:53.896Z,99.90
2022-07-28T01:02:23.323Z,99.90
2022-07-28T01:04:54.288Z,99.90
2022-07-28T01:07:37.043Z,99.90
2022-07-28T01:10:15.356Z,99.90
2022-07-28T01:12:52.439Z,99.90
2022-07-28T01:15:28.028Z,99.90
2022-07-28T01:18:05.311Z,99.90
2022-07-28T01:20:40.334Z,99.90
2022-07-28T01:23:45.282Z,99.90
2022-07-28T01:26:35.722Z,99.90
2022-07-28T01:29:18.069Z,99.90
2022-07-28T01:31:57.943Z,99.90
2022-07-28T01:34:32.248Z,99.90
2022-07-28T01:37:10.538Z,99.90
2022-07-28T01:39:44.008Z,99.90
2022-07-28T01:42:18.323Z,99.90
2022-07-28T01:44:51.414Z,99.90
2022-07-28T01:47:26.175Z,99.90
2022-07-28T01:49:57.886Z,99.90
2022-07-28T01:52:28.011Z,99.90
2022-07-28T01:54:58.579Z,99.90
2022-07-28T01:57:28.497Z,99.90
2022-07-28T02:00:00.845Z,99.90
2022-07-28T02:02:32.998Z,99.90
2022-07-28T02:05:04.679Z,99.90
2022-07-28T02:07:35.270Z,99.90
2022-07-28T02:10:06.062Z,99.90
2022-07-28T02:12:37.983Z,99.90
2022-07-28T02:15:11.850Z,99.90
2022-07-28T02:17:45.925Z,99.90
2022-07-28T02:20:18.314Z,99.90
2022-07-28T02:22:51.596Z,99.90
2022-07-28T02:25:22.425Z,99.90
2022-07-28T02:28:00.247Z,99.90
2022-07-28T02:30:36.103Z,99.90
2022-07-28T02:33:10.164Z,99.90
2022-07-28T02:35:48.785Z,99.90
2022-07-28T02:38:24.137Z,99.90
2022-07-28T02:41:00.125Z,99.90
2022-07-28T02:43:50.471Z,99.90
2022-07-28T02:46:23.923Z,99.90
2022-07-28T02:49:02.643Z,99.90
2022-07-28T02:51:35.206Z,99.90
2022-07-28T02:54:07.169Z,99.90
2022-07-28T02:56:37.710Z,99.90
2022-07-28T02:59:07.597Z,99.90
2022-07-28T03:01:37.019Z,99.90
2022-07-28T03:04:11.801Z,99.90
2022-07-28T03:06:43.969Z,99.90
2022-07-28T03:09:13.529Z,99.90
2022-07-28T03:11:53.997Z,99.90
2022-07-28T03:14:23.817Z,99.90
2022-07-28T03:16:55.687Z,99.90
2022-07-28T03:19:26.780Z,99.90
2022-07-28T03:21:57.273Z,99.90
2022-07-28T03:24:30.404Z,99.90
2022-07-28T03:27:04.071Z,99.90
2022-07-28T03:29:36.013Z,99.90
2022-07-28T03:32:05.862Z,99.90
2022-07-28T03:34:37.504Z,99.90
2022-07-28T03:37:10.664Z,99.90
2022-07-28T03:39:47.492Z,99.90
2022-07-28T03:42:20.232Z,99.90
2022-07-28T03:44:51.818Z,99.90
2022-07-28T03:47:24.807Z,99.90
2022-07-28T03:49:55.748Z,99.90
2022-07-28T03:52:24.932Z,99.90
2022-07-28T03:54:55.235Z,99.90
2022-07-28T03:57:25.160Z,99.90
2022-07-28T03:59:54.335Z,99.90
2022-07-28T04:02:23.418Z,99.90
2022-07-28T04:04:52.667Z,99.90
2022-07-28T04:07:25.648Z,99.90
2022-07-28T04:09:55.224Z,99.90
2022-07-28T04:12:24.355Z,99.90
2022-07-28T04:14:54.564Z,99.90
2022-07-28T04:17:23.883Z,99.90
2022-07-28T04:19:53.265Z,99.90
2022-07-28T04:22:25.735Z,99.90
2022-07-28T04:24:56.151Z,99.90
2022-07-28T04:27:24.974Z,99.90
2022-07-28T04:29:54.139Z,99.90
2022-07-28T04:32:24.311Z,99.90
2022-07-28T04:34:57.062Z,99.90
2022-07-28T04:37:32.366Z,99.90
2022-07-28T04:40:02.486Z,99.90
2022-07-28T04:42:32.364Z,99.90
2022-07-28T04:45:01.666Z,99.90
2022-07-28T04:47:31.022Z,99.90
2022-07-28T04:50:00.522Z,99.90
2022-07-28T04:52:32.030Z,99.90
2022-07-28T04:55:01.477Z,99.90
2022-07-28T04:57:30.975Z,99.90
2022-07-28T05:00:02.143Z,99.90
2022-07-28T05:02:31.088Z,99.90
2022-07-28T05:05:00.287Z,99.90
2022-07-28T05:07:31.410Z,99.90
2022-07-28T05:10:00.727Z,99.90
2022-07-28T05:12:29.937Z,99.90
2022-07-28T05:14:59.290Z,99.90
2022-07-28T05:17:28.738Z,99.90
2022-07-28T05:19:58.008Z,99.90
2022-07-28T05:22:28.229Z,99.90
2022-07-28T05:24:59.134Z,99.90
2022-07-28T05:27:28.429Z,99.90
2022-07-28T05:29:57.469Z,99.90
2022-07-28T05:32:26.892Z,99.90
2022-07-28T05:34:56.313Z,99.90
2022-07-28T05:37:26.171Z,99.90
2022-07-28T05:39:56.189Z,99.90
2022-07-28T05:42:30.813Z,99.90
2022-07-28T05:45:00.368Z,99.90
2022-07-28T05:47:29.840Z,99.90
2022-07-28T05:50:02.928Z,99.90
2022-07-28T05:52:36.140Z,99.90
2022-07-28T05:55:06.333Z,99.90
2022-07-28T05:57:37.943Z,99.90
2022-07-28T06:00:11.510Z,99.90
2022-07-28T06:02:41.153Z,99.90
2022-07-28T06:05:11.219Z,99.90
2022-07-28T06:07:44.382Z,99.90
2022-07-28T06:10:15.115Z,99.90
2022-07-28T06:12:46.858Z,99.90
2022-07-28T06:15:16.599Z,99.90
2022-07-28T06:17:45.993Z,99.90
2022-07-28T06:20:16.004Z,99.90
2022-07-28T06:22:46.169Z,99.90
2022-07-28T06:25:17.253Z,99.90
2022-07-28T06:27:49.293Z,99.90
2022-07-28T06:30:19.358Z,99.90
2022-07-28T06:32:48.702Z,99.90
2022-07-28T06:35:19.939Z,99.90
2022-07-28T06:37:50.810Z,99.90
2022-07-28T06:40:22.074Z,99.90
2022-07-28T06:42:53.968Z,99.90
2022-07-28T06:45:23.575Z,99.90
2022-07-28T06:47:55.627Z,99.90
2022-07-28T06:50:30.730Z,99.90
2022-07-28T06:52:59.810Z,99.90
2022-07-28T06:55:35.109Z,99.90
2022-07-28T06:58:08.067Z,99.90
2022-07-28T07:00:37.005Z,99.90
2022-07-28T07:03:09.574Z,99.90
2022-07-28T07:05:39.017Z,99.90
2022-07-28T07:08:07.950Z,99.90
2022-07-28T07:10:36.990Z,99.90
2022-07-28T07:13:07.479Z,99.90
2022-07-28T07:15:36.571Z,99.90
2022-07-28T07:18:07.230Z,99.90
2022-07-28T07:20:36.409Z,99.90
2022-07-28T07:23:05.525Z,99.90
2022-07-28T07:25:35.419Z,99.60
2022-07-28T07:28:04.692Z,99.90
2022-07-28T07:30:35.884Z,99.30
2022-07-28T07:33:09.702Z,99.90
2022-07-28T07:35:40.554Z,99.90
2022-07-28T07:38:13.357Z,97.60
2022-07-28T07:40:49.478Z,97.80
2022-07-28T07:43:19.456Z,94.80
2022-07-28T07:45:52.088Z,96.30
2022-07-28T07:48:21.537Z,92.10
2022-07-28T07:50:54.023Z,92.80
2022-07-28T07:53:24.686Z,94.40
2022-07-28T07:55:55.540Z,94.10
2022-07-28T07:58:24.888Z,90.50
2022-07-28T08:00:59.124Z,89.20
2022-07-28T08:03:28.726Z,90.70
2022-07-28T08:05:58.333Z,87.90
2022-07-28T08:08:30.020Z,80.80
2022-07-28T08:10:59.477Z,84.80
2022-07-28T08:13:36.567Z,87.00
2022-07-28T08:16:08.975Z,83.30
2022-07-28T08:18:38.803Z,82.40
2022-07-28T08:21:08.280Z,86.10
2022-07-28T08:23:37.651Z,76.80
2022-07-28T08:26:07.403Z,80.00
2022-07-28T08:28:37.145Z,76.50
2022-07-28T08:31:09.323Z,74.90
2022-07-28T08:33:54.207Z,78.00
2022-07-28T08:36:26.479Z,79.30
2022-07-28T08:38:59.594Z,72.70
2022-07-28T08:41:34.632Z,69.90
2022-07-28T08:44:13.565Z,76.50
2022-07-28T08:46:46.151Z,72.00
2022-07-28T08:49:17.763Z,66.70
2022-07-28T08:51:53.088Z,65.10
2022-07-28T08:54:31.018Z,65.20
2022-07-28T08:57:02.249Z,65.40
2022-07-28T08:59:34.925Z,68.50
2022-07-28T09:02:06.280Z,62.10
2022-07-28T09:04:40.414Z,65.20
2022-07-28T09:07:13.647Z,59.10
2022-07-28T09:09:42.882Z,58.50
2022-07-28T09:12:12.507Z,56.50
2022-07-28T09:14:42.337Z,56.60
2022-07-28T09:17:12.924Z,57.50
2022-07-28T09:19:42.529Z,55.80
2022-07-28T09:22:11.674Z,56.90
2022-07-28T09:24:42.901Z,54.00
2022-07-28T09:27:16.938Z,53.60
2022-07-28T09:29:49.020Z,54.10
2022-07-28T09:32:22.562Z,52.40
2022-07-28T09:34:56.801Z,49.50
2022-07-28T09:37:30.192Z,47.60
2022-07-28T09:40:11.564Z,44.40
2022-07-28T09:42:48.205Z,46.80
2022-07-28T09:45:23.259Z,44.20
2022-07-28T09:48:11.702Z,42.80
2022-07-28T09:50:43.428Z,45.10
2022-07-28T09:53:30.761Z,44.30
2022-07-28T09:56:00.742Z,43.20
2022-07-28T09:58:32.184Z,45.80
2022-07-28T10:01:11.618Z,42.80
2022-07-28T10:03:45.254Z,41.30
2022-07-28T10:06:17.244Z,38.10
2022-07-28T10:08:48.516Z,41.10
2022-07-28T10:11:20.094Z,40.10
2022-07-28T10:13:57.784Z,41.10
2022-07-28T10:16:29.022Z,41.50
2022-07-28T10:19:01.414Z,42.90
2022-07-28T10:21:34.948Z,42.50
2022-07-28T10:24:07.356Z,42.80
2022-07-28T10:26:40.847Z,42.60
2022-07-28T10:29:15.624Z,42.40
2022-07-28T10:31:51.285Z,43.80
2022-07-28T10:34:28.620Z,42.50
2022-07-28T10:37:03.259Z,42.60
2022-07-28T10:39:41.729Z,43.60
2022-07-28T10:42:13.433Z,43.40
2022-07-28T10:44:44.474Z,39.70
2022-07-28T10:47:18.300Z,41.40
2022-07-28T10:49:53.074Z,41.50
2022-07-28T11:09:53.678Z,41.00
2022-07-28T11:12:46.574Z,40.50
2022-07-28T11:15:28.270Z,41.00
2022-07-28T11:18:08.748Z,42.70
2022-07-28T11:21:06.440Z,39.20
2022-07-28T11:23:57.785Z,39.90
2022-07-28T11:26:48.619Z,39.10
2022-07-28T11:29:24.120Z,38.50
2022-07-28T11:32:03.429Z,39.70
2022-07-28T11:35:09.844Z,38.00
2022-07-28T11:38:10.439Z,36.80
2022-07-28T11:40:44.778Z,35.70
2022-07-28T11:43:37.589Z,39.00
2022-07-28T11:46:38.490Z,37.90
2022-07-28T11:49:19.985Z,34.50
2022-07-28T11:52:17.061Z,35.30
2022-07-28T11:54:51.812Z,36.70
2022-07-28T11:57:24.343Z,39.10
2022-07-28T12:00:03.731Z,36.10
2022-07-28T12:02:36.498Z,36.30
2022-07-28T12:05:12.218Z,35.70
2022-07-28T12:07:46.784Z,35.80
2022-07-28T12:10:54.411Z,36.10
2022-07-28T12:13:28.969Z,37.20
2022-07-28T12:15:59.467Z,36.20
2022-07-28T12:18:28.549Z,35.50
2022-07-28T12:21:01.697Z,35.30
2022-07-28T12:23:45.525Z,35.70
2022-07-28T12:26:41.538Z,36.70
2022-07-28T12:29:14.727Z,35.60
2022-07-28T12:31:56.575Z,38.10
2022-07-28T12:34:29.349Z,38.60
2022-07-28T12:37:03.187Z,36.40
2022-07-28T12:39:35.035Z,36.90
2022-07-28T12:42:06.109Z,34.10
2022-07-28T12:44:40.227Z,35.40
2022-07-28T12:47:13.121Z,35.00
2022-07-28T12:49:45.093Z,34.50
2022-07-28T12:52:22.282Z,35.30
2022-07-28T12:54:55.654Z,35.60
2022-07-28T12:57:49.898Z,36.30
2022-07-28T13:00:25.676Z,32.90
2022-07-28T13:02:59.717Z,34.60
2022-07-28T13:05:55.222Z,34.50
2022-07-28T13:08:29.557Z,35.60
2022-07-28T13:10:59.534Z,34.90
2022-07-28T13:13:30.614Z,34.60
2022-07-28T13:16:13.659Z,35.10
2022-07-28T13:18:46.462Z,33.80
2022-07-28T13:21:17.095Z,34.20
2022-07-28T13:23:46.453Z,35.20
2022-07-28T13:26:16.827Z,34.20
2022-07-28T13:28:48.890Z,35.40
2022-07-28T13:31:18.456Z,35.70
2022-07-28T13:33:49.290Z,37.40
2022-07-28T13:36:19.382Z,34.30
2022-07-28T13:38:48.777Z,34.20
2022-07-28T13:41:19.130Z,36.60
2022-07-28T13:43:49.352Z,33.40
2022-07-28T13:46:21.479Z,33.80
2022-07-28T13:48:58.025Z,33.60
2022-07-28T13:51:29.400Z,34.80
2022-07-28T13:54:04.732Z,37.00
2022-07-28T13:56:33.989Z,35.30
2022-07-28T13:59:03.640Z,33.30
2022-07-28T14:01:39.786Z,32.90
2022-07-28T14:04:17.133Z,34.60
2022-07-28T14:06:47.657Z,34.10
2022-07-28T14:09:16.816Z,33.70
2022-07-28T14:11:50.018Z,33.70
2022-07-28T14:14:25.432Z,37.40
2022-07-28T14:16:56.206Z,33.30
2022-07-28T14:19:39.056Z,32.50
2022-07-28T14:22:13.805Z,33.70
2022-07-28T14:24:44.139Z,35.40
2022-07-28T14:27:13.235Z,34.40
2022-07-28T14:29:43.790Z,35.20
2022-07-28T14:32:13.627Z,34.90
2022-07-28T14:34:46.428Z,34.90
2022-07-28T14:37:17.086Z,35.30
2022-07-28T14:39:47.145Z,34.30
2022-07-28T14:42:16.103Z,34.60
2022-07-28T14:44:45.112Z,33.60
2022-07-28T14:47:15.934Z,33.60
2022-07-28T14:49:57.366Z,33.60
2022-07-28T14:52:30.112Z,34.80
2022-07-28T14:55:00.588Z,36.70
2022-07-28T14:57:48.293Z,35.80
2022-07-28T15:00:19.512Z,35.70
2022-07-28T15:02:48.836Z,35.30
2022-07-28T15:05:21.482Z,35.40
2022-07-28T15:07:52.462Z,35.10
2022-07-28T15:10:22.938Z,35.10
2022-07-28T15:12:52.254Z,36.30
2022-07-28T15:35:27.533Z,39.40
2022-07-28T15:37:59.294Z,42.10
2022-07-28T15:40:28.245Z,42.30
2022-07-28T15:42:57.202Z,41.70
2022-07-28T15:45:26.613Z,42.70
2022-07-28T15:47:55.884Z,41.80
2022-07-28T15:50:24.900Z,40.00
2022-07-28T15:52:58.078Z,43.10
2022-07-28T15:55:27.077Z,42.90
2022-07-28T15:57:55.922Z,44.00
2022-07-28T16:00:24.630Z,43.50
2022-07-28T16:02:54.269Z,42.10
2022-07-28T16:05:23.245Z,42.90
2022-07-28T16:07:52.131Z,42.70
2022-07-28T16:10:23.320Z,44.20
2022-07-28T16:12:54.301Z,44.00
2022-07-28T16:15:25.277Z,46.50
2022-07-28T16:17:55.049Z,46.10
2022-07-28T16:20:24.672Z,45.80
2022-07-28T16:22:53.905Z,46.20
2022-07-28T16:25:26.635Z,46.40
2022-07-28T16:27:55.683Z,45.50
2022-07-28T16:30:25.369Z,46.80
2022-07-28T16:32:56.464Z,45.60
2022-07-28T16:35:26.855Z,45.10
2022-07-28T16:37:55.998Z,45.80
2022-07-28T16:40:27.348Z,46.90
2022-07-28T16:42:56.780Z,47.40
2022-07-28T16:45:30.687Z,46.30
2022-07-28T16:48:03.968Z,46.10
2022-07-28T16:50:33.520Z,45.60
2022-07-28T16:53:04.946Z,46.50
2022-07-28T16:55:35.818Z,47.70
2022-07-28T16:58:05.059Z,47.90
2022-07-28T17:00:34.347Z,48.00
2022-07-28T17:03:03.686Z,48.40
2022-07-28T17:05:34.419Z,48.70
2022-07-28T17:08:05.286Z,50.60
2022-07-28T17:10:36.127Z,51.50
2022-07-28T17:13:05.292Z,52.00
2022-07-28T17:15:34.717Z,52.70
2022-07-28T17:18:05.096Z,52.80
2022-07-28T17:20:35.489Z,50.20
2022-07-28T17:23:05.026Z,51.30
2022-07-28T17:25:54.630Z,49.10
2022-07-28T17:28:25.523Z,50.60
2022-07-28T17:30:55.983Z,51.90
2022-07-28T17:33:27.153Z,51.60
2022-07-28T17:35:57.471Z,51.20
2022-07-28T17:38:32.800Z,51.50
2022-07-28T17:41:04.907Z,52.20
2022-07-28T17:43:35.470Z,52.90
2022-07-28T17:46:08.261Z,54.80
2022-07-28T17:48:40.156Z,54.00
2022-07-28T17:51:10.453Z,55.10
2022-07-28T17:53:40.198Z,56.20
2022-07-28T17:56:17.076Z,57.90
2022-07-28T17:58:46.995Z,58.30
2022-07-28T18:01:16.934Z,59.20
2022-07-28T18:03:56.681Z,61.50
2022-07-28T18:06:32.919Z,60.30
2022-07-28T18:09:07.874Z,59.90
2022-07-28T18:11:57.406Z,60.90
2022-07-28T18:14:33.789Z,61.60
2022-07-28T18:17:03.296Z,64.60
2022-07-28T18:19:33.633Z,65.10
2022-07-28T18:22:05.921Z,65.90
2022-07-28T18:24:35.962Z,66.50
2022-07-28T18:27:07.434Z,66.50
2022-07-28T18:29:38.962Z,65.50
2022-07-28T18:32:11.103Z,67.60
2022-07-28T18:34:42.092Z,66.70
2022-07-28T18:37:13.237Z,66.70
2022-07-28T18:39:44.936Z,65.70
2022-07-28T18:42:17.328Z,65.90
2022-07-28T18:44:48.123Z,66.00
2022-07-28T18:47:18.431Z,65.40
2022-07-28T18:49:48.060Z,65.60
2022-07-28T18:52:19.039Z,66.20
2022-07-28T18:54:49.064Z,66.70
2022-07-28T18:57:24.410Z,66.70
2022-07-28T18:59:55.693Z,66.70
2022-07-28T19:02:27.437Z,67.80
2022-07-28T19:04:58.703Z,69.70
2022-07-28T19:07:30.139Z,70.80
2022-07-28T19:10:00.232Z,71.10
2022-07-28T19:12:32.306Z,71.60
2022-07-28T19:15:03.247Z,72.40
2022-07-28T19:17:35.147Z,73.80
2022-07-28T19:20:08.264Z,77.00
2022-07-28T19:22:38.504Z,77.10
2022-07-28T19:25:09.415Z,76.50
2022-07-28T19:27:44.323Z,76.40
2022-07-28T19:30:15.914Z,76.50
2022-07-28T19:32:47.616Z,77.70
2022-07-28T19:35:17.303Z,80.40
2022-07-28T19:37:47.800Z,80.00
2022-07-28T19:40:17.466Z,80.80
2022-07-28T19:45:58.647Z,82.80
2022-07-28T19:48:36.087Z,86.20
2022-07-28T19:51:09.816Z,90.00
2022-07-28T19:54:10.347Z,90.10
2022-07-28T19:57:02.155Z,90.20
2022-07-28T19:59:47.024Z,90.90
2022-07-28T20:02:32.323Z,92.50
2022-07-28T20:05:16.393Z,94.40
2022-07-28T20:07:51.002Z,98.20
2022-07-28T20:10:43.185Z,99.90
2022-07-28T20:13:17.339Z,99.60
2022-07-28T20:16:28.120Z,99.90
2022-07-28T20:19:13.070Z,99.90
2022-07-28T20:21:44.798Z,99.90
2022-07-28T20:24:19.955Z,99.90
2022-07-28T20:26:50.306Z,99.90
2022-07-28T20:29:41.353Z,99.90
2022-07-28T20:32:55.511Z,99.90
2022-07-28T20:35:29.214Z,99.90
2022-07-28T20:38:09.837Z,99.90
2022-07-28T20:40:43.853Z,99.90
2022-07-28T20:43:38.583Z,99.90
2022-07-28T20:46:31.202Z,99.90
2022-07-28T20:49:03.924Z,99.90
2022-07-28T20:51:36.224Z,99.90
2022-07-28T20:54:07.800Z,99.90
2022-07-28T20:56:52.991Z,99.90
2022-07-28T20:59:27.645Z,99.90
2022-07-28T21:02:05.096Z,99.90
2022-07-28T21:04:39.594Z,99.90
2022-07-28T21:07:15.861Z,99.90
2022-07-28T21:10:09.084Z,99.90
2022-07-28T21:12:41.645Z,99.90
2022-07-28T21:15:14.560Z,99.90
2022-07-28T21:17:46.127Z,99.90
2022-07-28T21:20:17.751Z,99.90
2022-07-28T21:22:52.328Z,99.90
2022-07-28T21:25:24.380Z,99.90
2022-07-28T21:28:11.138Z,99.90
2022-07-28T21:31:05.564Z,99.90
2022-07-28T21:33:35.236Z,99.90
2022-07-28T21:36:22.072Z,99.90
2022-07-28T21:38:54.971Z,99.90
2022-07-28T21:41:26.496Z,99.90
2022-07-28T21:44:06.371Z,99.90
2022-07-28T21:46:40.299Z,99.90
2022-07-28T21:49:10.666Z,99.90
2022-07-28T21:51:40.379Z,99.90
2022-07-28T21:54:11.900Z,99.90
2022-07-28T21:56:41.451Z,99.90
2022-07-28T21:59:10.694Z,99.90
2022-07-28T22:01:39.879Z,99.90
2022-07-28T22:04:09.725Z,99.90
2022-07-28T22:06:40.238Z,99.90
2022-07-28T22:09:17.607Z,99.90
2022-07-28T22:11:52.699Z,99.90
2022-07-28T22:14:33.153Z,99.90
2022-07-28T22:17:05.443Z,99.90
2022-07-28T22:19:36.139Z,99.90
2022-07-28T22:22:05.642Z,99.90
2022-07-28T22:24:41.851Z,99.90
2022-07-28T22:27:11.422Z,99.90
2022-07-28T22:29:40.524Z,99.90
2022-07-28T22:32:26.660Z,99.90
2022-07-28T22:35:15.755Z,99.90
2022-07-28T22:38:15.994Z,99.90
2022-07-28T22:40:52.103Z,99.90
2022-07-28T22:43:28.318Z,99.90
2022-07-28T22:46:24.194Z,99.90
2022-07-28T22:49:13.524Z,99.90
2022-07-28T22:52:21.472Z,99.90
2022-07-28T23:09:59.951Z,99.90
2022-07-28T23:12:29.015Z,99.90
2022-07-28T23:14:57.771Z,99.90
2022-07-28T23:17:27.512Z,99.90
2022-07-28T23:19:59.398Z,99.90
2022-07-28T23:22:28.498Z,99.90
2022-07-28T23:24:59.572Z,99.90
2022-07-28T23:27:28.370Z,99.90
2022-07-28T23:29:57.267Z,99.90
2022-07-28T23:32:26.035Z,99.90
2022-07-28T23:34:54.924Z,99.90
2022-07-28T23:37:23.703Z,99.90
2022-07-28T23:39:52.471Z,99.90
2022-07-28T23:42:23.218Z,99.90
2022-07-28T23:44:52.083Z,99.90
2022-07-28T23:47:20.686Z,99.90
2022-07-28T23:49:49.483Z,99.90
2022-07-28T23:52:18.807Z,99.90
2022-07-28T23:54:47.521Z,99.90
2022-07-28T23:57:16.238Z,99.90
2022-07-28T23:59:46.498Z,99.90
